»·PEaware :: N2824B KSNA-KAVX

N2824B :: KSNA-KAVX

FLIGHT INFORMATION

Flight Status: Arrived
Operator: Privately registered:
United States
More flights under this callsign
Pilot: Ian R. (18354)
Aircraft: BEECH AIRCRAFT T-6A TEXAN
(TEX2)
More flights by this aircraft type
Origin: KSNA John Wayne-Orange Co
United States
Destination: KAVX Catalina
United States
More flights between these airports :: More routes between these airports
Route: SLI V21 SXC
File this flight plan on PilotEdge
Remarks:
Altitude:
(Current/Filed)
4,000ft
Speed:
(Current/Filed)
210kts
Departed: 01-Dec-20 09:18 AM
Arrived: 01-Dec-20 09:40 AM
Distance/Time
Traveled:
32nm/0:22
Distance/Time
To Go:
Arrived

Flight Plot

Page will automatically refresh every two minutes.


Map Options




Map Legend


Flown Route
Filed Route
Departure Airport
Arrival Airport
Navaid (VOR, NDB)
Fix

Horizontal Profiles

Position Reports

Time Latitude Longitude Heading Altitude Ground
Speed
01-Dec-20 08:51 33.665683 -117.873555 41 60ft 0kts
01-Dec-20 08:52 33.665683 -117.873554 41 60ft 0kts
01-Dec-20 08:53 33.665683 -117.873554 41 60ft 0kts
01-Dec-20 08:54 33.665683 -117.873554 41 60ft 0kts
01-Dec-20 08:55 33.665683 -117.873554 41 60ft 0kts
01-Dec-20 08:56 33.665683 -117.873554 41 60ft 0kts
01-Dec-20 08:57 33.665683 -117.873554 41 60ft 0kts
01-Dec-20 08:58 33.665683 -117.873554 41 60ft 0kts
01-Dec-20 08:59 33.665683 -117.873554 41 60ft 0kts
01-Dec-20 09:00 33.665683 -117.873554 41 60ft 0kts
01-Dec-20 09:01 33.665683 -117.873554 41 60ft 0kts
01-Dec-20 09:02 33.665683 -117.873554 41 60ft 0kts
01-Dec-20 09:04 33.665683 -117.873554 41 60ft 0kts
01-Dec-20 09:05 33.665683 -117.873554 41 60ft 0kts
01-Dec-20 09:06 33.665683 -117.873554 41 60ft 0kts
01-Dec-20 09:07 33.665683 -117.873554 41 60ft 0kts
01-Dec-20 09:08 33.666104 -117.873618 23 60ft 5kts
01-Dec-20 09:09 33.667626 -117.873270 300 60ft 7kts
01-Dec-20 09:10 33.669110 -117.874487 27 60ft 8kts
01-Dec-20 09:11 33.671407 -117.873014 26 60ft 10kts
01-Dec-20 09:12 33.673822 -117.871514 27 60ft 7kts
01-Dec-20 09:13 33.676097 -117.870058 27 60ft 10kts
01-Dec-20 09:14 33.678857 -117.868322 27 60ft 11kts
01-Dec-20 09:15 33.681242 -117.866628 103 60ft 4kts
01-Dec-20 09:16 33.681240 -117.866621 104 60ft 0kts
01-Dec-20 09:17 33.680976 -117.865897 111 60ft 6kts
01-Dec-20 09:18 33.666594 -117.874748 208 409ft 141kts
01-Dec-20 09:19 33.640772 -117.911711 232 1923ft 161kts
01-Dec-20 09:20 33.611047 -117.957352 229 2775ft 167kts
01-Dec-20 09:20 33.591553 -117.994770 262 3885ft 160kts
01-Dec-20 09:22 33.600688 -118.063898 280 4018ft 196kts
01-Dec-20 09:22 33.607810 -118.118904 278 4051ft 201kts
01-Dec-20 09:24 33.613564 -118.197356 251 4070ft 204kts
01-Dec-20 09:24 33.577770 -118.234466 211 3895ft 212kts
01-Dec-20 09:26 33.522040 -118.276249 210 3788ft 197kts
01-Dec-20 09:26 33.485411 -118.307503 208 3879ft 191kts
01-Dec-20 09:27 33.435862 -118.322234 191 3900ft 179kts
01-Dec-20 09:28 33.388564 -118.336611 218 3790ft 172kts
01-Dec-20 09:29 33.378173 -118.389333 270 3847ft 168kts
01-Dec-20 09:30 33.398282 -118.424631 18 3840ft 159kts
01-Dec-20 09:31 33.440964 -118.411832 18 3798ft 165kts
01-Dec-20 09:32 33.482527 -118.414917 315 3521ft 154kts
01-Dec-20 09:33 33.510967 -118.448048 2 3240ft 138kts
01-Dec-20 09:34 33.501767 -118.418940 148 3355ft 138kts
01-Dec-20 09:35 33.463720 -118.408645 185 3417ft 144kts
01-Dec-20 09:36 33.427483 -118.414557 185 2569ft 112kts
01-Dec-20 09:37 33.408162 -118.437086 237 2171ft 95kts
01-Dec-20 09:38 33.398632 -118.426122 44 1826ft 90kts
01-Dec-20 09:39 33.407398 -118.411468 141 1570ft 8kts
01-Dec-20 09:40 33.405647 -118.413976 233 1570ft 12kts
01-Dec-20 09:41 33.403490 -118.415198 231 1570ft 0kts

Navigation Log

Ident Type
Flight plan parsing failed, navigation log unavailable